Historyczne dane pomiarowe

Dodano dane terminowe – wersja testowa.

Dane z okresu 1951-2019

Wersja bazy: 1.34 [2019-03-16, lista zmian], aktualizacja planowana na 2019-04-15

Dane meteo z obszaru Polski uzyskane na podstawie danych udostępnionych przez Instytut Meteorologii i Gospodarki Wodnej – Państwowy Instytut Badawczy.

 

Wybierz Datę:    

       

TemperaturaWilgotnośćZachmurzenieWiatrCiśnienieWidzialnośćZjawiska
 Data    tng td wb rh cc ccl cl cm ch dir g1 g2 mslp ppp      
1999-06-19 00:00:00 17.9--- 16.5 17.091wxwx2wx--1015.0 993.1 0.0---wxw1
1999-06-19 01:00:00 17.3--- 15.7 16.390wxwx0wx--1015.5 993.6----wx
1999-06-19 02:00:00 16.6--- 14.6 15.488wxwxwx0wx--1015.3 993.3----wx
1999-06-19 03:00:00 16.8--- 15.5 16.092wxwxwx2wx--1015.6 993.6----wx
1999-06-19 04:00:00 18.2--- 16.3 17.089wxwxwx1wx--1015.8 993.9----wx
1999-06-19 05:00:00 20.1--- 17.2 18.283wxwxwx2wx--1015.6 993.9----wx
1999-06-19 06:00:00 21.6--- 18.4 19.582wxwxwx1wx--1015.7 994.1 0.0---wx
1999-06-19 07:00:00 23.6--- 20.7 21.684wxwxwx1wx--1015.7 994.2----wx
1999-06-19 08:00:00 24.2--- 19.8 21.276wxwxwx1wx--1015.6 994.2----wx
1999-06-19 09:00:00 25.0--- 20.3 21.875wxwxwx0wx--1015.6 994.2----wx
1999-06-19 10:00:00 26.0--- 20.5 22.272wxwxwxwx0wx--1015.5 994.2----wx
1999-06-19 11:00:00 26.8--- 19.5 21.864wxwxwxwx1wx--1015.0 993.8----wx
1999-06-19 12:00:00 27.2--- 19.9 22.265wxwxwxwx1wx--1014.4 993.2 0.0---wx
1999-06-19 13:00:00 27.0--- 19.4 21.863wxwxwxwx2wx--1014.4 993.2----wx
1999-06-19 14:00:00 27.8--- 17.6 21.054wxwxwxwx2wx--1013.9 992.8----wx
1999-06-19 15:00:00 25.2--- 17.7 20.263wxwxwx2wx--1014.8 993.5----wx
1999-06-19 16:00:00 23.8--- 16.2 18.963wxwxwx5wx--1015.3 993.9----wxw1
1999-06-19 17:00:00 19.4--- 15.1 16.776wxwxwx3wx--1015.8 994.0----wxw1
1999-06-19 18:00:00 19.8--- 15.3 17.076wxwxwx4wx--1015.5 993.8 0.7---wxw1
1999-06-19 19:00:00 20.0--- 14.9 16.872wxwxwx1wx--1015.0 993.3----wxw1
1999-06-19 20:00:00 18.2--- 15.7 16.685wxwxwxwx1wx--1015.6 993.7----wxw1
1999-06-19 21:00:00 16.8--- 15.5 16.092wxwxwxwx0wx--1015.7 993.7----wxw1
1999-06-19 22:00:00 16.2--- 14.2 15.088wxwxwxwx0wx--1015.6 993.6----wx
1999-06-19 23:00:00 15.4--- 14.4 14.894wxwxwx0wx--1016.1 994.0----wx

 

Źródłem pochodzenia danych jest Instytut Meteorologii i Gospodarki Wodnej – Państwowy Instytut Badawczy. Dane Instytutu Meteorologii i Gospodarki Wodnej – Państwowego Instytutu Badawczego zostały przetworzone.

Dane źródłowe można odnaleźć na stronie https://dane.imgw.pl